Inguadona, Minnesota
Current Conditions -  °F | °C
As of 2:36 AM on Saturday 29 Nov 2014 (Local Time) from KXVG Reporting Station
Overcast Overcast  
Wind Chill: 11°   Ceiling: 900
Heat Index: 19°   Visibility: 7mi
Dew Point: 16°   Wind: 6mph
Humidity: 86%   Direction: 170°S
Pressure: 29.54"   Gusts: NA
Location:  47.0632°N, 94.1534°W
Report Text: KXVG 290836Z AUTO 17005KT 7SM OVC009 M07/M09 A2954 RMK AO2
Loading
Personal Weather Stations






























Interactive Weather Map New forecast layout! Learn more

10-Day Weather Forecast

Advertisements
Track Severe Weather on mobile